Georgtown Station, New York
Current Conditions -  °F | °C
As of 5:53 PM on Monday 24 Nov 2014 (Local Time) from KRME Reporting Station
Few Clouds Few Clouds  
Wind Chill: 64°   Ceiling: Unl
Heat Index: 64°   Visibility: 10mi
Dew Point: 50°   Wind: 10mph
Humidity: 60%   Direction: 180°S
Pressure: 29.44"   Gusts: NA
Location:  42.8314°N, 75.6471°W
Report Text: KRME 242253Z 18009KT 10SM FEW075 18/10 A2944 RMK AO2 SLP966 T01780100
Loading
Personal Weather Stations






























Interactive Weather Map New forecast layout! Learn more

10-Day Weather Forecast

Advertisements
Track Severe Weather on mobile